createdAt,value
2019-02-16T00:01:25.182Z,53.23
2019-02-16T00:03:55.056Z,53.27
2019-02-16T00:06:27.119Z,53.27
2019-02-16T00:08:57.526Z,53.56
2019-02-16T00:11:27.381Z,53.49
2019-02-16T00:13:57.194Z,53.49
2019-02-16T00:16:29.528Z,53.28
2019-02-16T00:18:59.514Z,53.89
2019-02-16T00:21:29.337Z,53.72
2019-02-16T00:23:59.444Z,53.69
2019-02-16T00:26:29.307Z,53.69
2019-02-16T00:28:59.776Z,53.86
2019-02-16T00:31:32.613Z,53.86
2019-02-16T00:34:02.585Z,53.58
2019-02-16T00:36:32.682Z,53.47
2019-02-16T00:39:02.890Z,54.43
2019-02-16T00:41:33.103Z,53.95
2019-02-16T00:44:03.625Z,54.16
2019-02-16T00:46:33.618Z,54.16
2019-02-16T00:49:03.352Z,53.77
2019-02-16T00:51:33.136Z,54.22
2019-02-16T00:54:02.785Z,54.35
2019-02-16T00:56:33.287Z,54.01
2019-02-16T00:59:03.947Z,54.14
2019-02-16T01:01:34.335Z,54.42
2019-02-16T01:04:04.400Z,54.36
2019-02-16T01:06:34.212Z,54.36
2019-02-16T01:09:05.214Z,54.34
2019-02-16T01:11:35.739Z,54.50
2019-02-16T01:14:05.502Z,54.48
2019-02-16T01:16:35.700Z,54.49
2019-02-16T01:19:05.310Z,54.22
2019-02-16T01:21:35.334Z,54.42
2019-02-16T01:24:05.174Z,54.14
2019-02-16T01:26:35.172Z,54.14
2019-02-16T01:29:05.185Z,54.22
2019-02-16T01:31:34.891Z,54.27
2019-02-16T01:34:04.736Z,54.22
2019-02-16T01:36:36.871Z,54.22
2019-02-16T01:39:06.935Z,54.31
2019-02-16T01:41:37.059Z,54.13
2019-02-16T01:44:06.984Z,54.13
2019-02-16T01:46:36.751Z,54.23
2019-02-16T01:49:06.527Z,54.11
2019-02-16T01:51:37.320Z,54.11
2019-02-16T01:54:07.620Z,53.84
2019-02-16T01:56:37.815Z,54.17
2019-02-16T01:59:07.730Z,53.64
2019-02-16T02:01:37.723Z,53.70
2019-02-16T02:04:07.370Z,54.00
2019-02-16T02:06:37.343Z,54.33
2019-02-16T02:09:07.150Z,54.33
2019-02-16T02:11:40.553Z,54.94
2019-02-16T02:14:10.389Z,54.97
2019-02-16T02:16:44.336Z,54.97
2019-02-16T02:19:14.179Z,54.84
2019-02-16T02:21:44.697Z,54.79
2019-02-16T02:24:14.678Z,54.79
2019-02-16T02:26:44.762Z,54.68
2019-02-16T02:29:14.673Z,54.86
2019-02-16T02:31:45.320Z,54.86
2019-02-16T02:34:15.198Z,55.26
2019-02-16T02:36:45.601Z,55.42
2019-02-16T02:39:15.648Z,55.42
2019-02-16T02:41:45.495Z,55.50
2019-02-16T02:44:15.380Z,55.51
2019-02-16T02:46:45.867Z,55.35
2019-02-16T02:49:15.624Z,55.70
2019-02-16T02:51:52.248Z,56.06
2019-02-16T02:54:18.513Z,55.60
2019-02-16T02:56:48.332Z,55.60
2019-02-16T02:59:18.055Z,55.59
2019-02-16T03:01:48.118Z,55.72
2019-02-16T03:04:18.642Z,55.72
2019-02-16T03:06:49.081Z,56.05
2019-02-16T03:09:19.149Z,56.36
2019-02-16T03:11:49.019Z,56.20
2019-02-16T03:14:19.006Z,56.27
2019-02-16T03:16:50.863Z,56.09
2019-02-16T03:19:20.602Z,56.09
2019-02-16T03:21:50.467Z,55.88
2019-02-16T03:24:20.999Z,56.42
2019-02-16T03:27:18.560Z,56.42
2019-02-16T03:30:36.370Z,56.29
2019-02-16T03:33:46.452Z,56.29
2019-02-16T03:37:07.622Z,56.15
2019-02-16T03:39:43.757Z,56.15
2019-02-16T03:42:13.905Z,56.76
2019-02-16T03:44:43.653Z,56.44
2019-02-16T03:47:13.150Z,56.44
2019-02-16T03:49:42.972Z,57.00
2019-02-16T03:52:14.301Z,56.75
2019-02-16T03:54:44.132Z,56.87
2019-02-16T03:57:13.596Z,57.05
2019-02-16T03:59:43.498Z,57.57
2019-02-16T04:02:16.359Z,57.98
2019-02-16T04:05:08.704Z,57.26
2019-02-16T04:07:42.784Z,57.26
2019-02-16T04:10:22.083Z,57.13
2019-02-16T04:13:00.809Z,57.48
2019-02-16T04:16:11.026Z,57.57
2019-02-16T04:18:42.776Z,57.59
2019-02-16T04:21:15.794Z,57.59
2019-02-16T04:23:49.022Z,57.72
2019-02-16T04:26:20.959Z,58.03
2019-02-16T04:28:54.332Z,58.03
2019-02-16T04:31:37.123Z,57.91
2019-02-16T04:34:39.160Z,57.91
2019-02-16T04:38:05.311Z,57.44
2019-02-16T04:40:35.407Z,57.93
2019-02-16T04:43:08.524Z,57.66
2019-02-16T04:45:53.888Z,57.37
2019-02-16T04:48:47.677Z,58.00
2019-02-16T04:53:24.393Z,58.24
2019-02-16T05:02:50.786Z,58.68
2019-02-16T05:09:02.823Z,58.37
2019-02-16T05:11:50.900Z,58.37
2019-02-16T05:14:58.831Z,58.35
2019-02-16T05:18:26.622Z,58.57
2019-02-16T05:20:57.142Z,58.57
2019-02-16T05:23:27.263Z,58.77
2019-02-16T05:25:57.740Z,59.49
2019-02-16T05:28:27.921Z,58.94
2019-02-16T05:30:57.690Z,58.89
2019-02-16T05:33:27.623Z,58.51
2019-02-16T05:35:57.782Z,58.69
2019-02-16T05:38:27.717Z,58.69
2019-02-16T05:40:57.356Z,58.65
2019-02-16T05:43:29.049Z,58.67
2019-02-16T05:45:58.995Z,58.12
2019-02-16T05:48:29.010Z,58.41
2019-02-16T05:51:02.318Z,58.41
2019-02-16T05:53:32.001Z,59.00
2019-02-16T05:56:01.517Z,58.37
2019-02-16T05:58:31.396Z,59.32
2019-02-16T06:01:01.439Z,58.72
2019-02-16T06:03:31.224Z,58.68
2019-02-16T06:06:01.549Z,58.76
2019-02-16T06:08:31.294Z,59.05
2019-02-16T06:11:01.501Z,59.05
2019-02-16T06:13:31.524Z,59.18
2019-02-16T06:16:01.320Z,58.57
2019-02-16T06:18:33.861Z,58.59
2019-02-16T06:21:03.743Z,58.68
2019-02-16T06:23:33.381Z,58.61
2019-02-16T06:26:03.147Z,58.61
2019-02-16T06:28:32.889Z,58.48
2019-02-16T06:31:02.941Z,59.44
2019-02-16T06:33:34.113Z,59.27
2019-02-16T06:36:19.296Z,59.27
2019-02-16T06:38:48.942Z,58.86
2019-02-16T06:41:18.735Z,58.86
2019-02-16T06:43:48.211Z,59.18
2019-02-16T06:46:17.968Z,59.18
2019-02-16T06:48:48.013Z,59.44
2019-02-16T06:51:17.532Z,58.67
2019-02-16T06:53:47.186Z,58.67
2019-02-16T06:56:45.309Z,59.44
2019-02-16T06:59:14.962Z,58.84
2019-02-16T07:01:44.900Z,59.32
2019-02-16T07:04:14.964Z,58.95
2019-02-16T07:06:44.869Z,58.95
2019-02-16T07:09:15.142Z,58.46
2019-02-16T07:11:44.995Z,58.80
2019-02-16T07:14:17.849Z,58.80
2019-02-16T07:17:25.153Z,59.71
2019-02-16T07:19:57.228Z,59.71
2019-02-16T07:22:27.786Z,58.86
2019-02-16T07:24:59.166Z,58.84
2019-02-16T07:27:35.612Z,58.62
2019-02-16T07:30:09.935Z,58.62
2019-02-16T07:32:42.756Z,58.53
2019-02-16T07:35:12.531Z,58.04
2019-02-16T07:37:42.050Z,58.62
2019-02-16T07:40:12.562Z,58.11
2019-02-16T07:42:58.829Z,57.69
2019-02-16T07:45:53.066Z,57.65
2019-02-16T07:48:45.455Z,57.67
2019-02-16T07:51:37.195Z,57.51
2019-02-16T07:54:23.136Z,57.68
2019-02-16T07:57:16.017Z,57.68
2019-02-16T07:59:53.910Z,57.15
2019-02-16T08:02:30.791Z,56.43
2019-02-16T08:05:29.783Z,56.43
2019-02-16T08:08:07.431Z,56.35
2019-02-16T08:10:55.206Z,56.36
2019-02-16T08:13:53.460Z,55.64
2019-02-16T08:16:29.078Z,55.64
2019-02-16T08:19:24.399Z,54.74
2019-02-16T08:22:23.926Z,54.21
2019-02-16T08:25:09.693Z,54.21
2019-02-16T08:27:46.750Z,54.10
2019-02-16T08:30:38.299Z,53.75
2019-02-16T08:33:28.747Z,53.91
2019-02-16T08:36:34.146Z,53.91
2019-02-16T08:39:36.085Z,53.13
2019-02-16T08:42:25.086Z,53.53
2019-02-16T08:45:36.666Z,53.58
2019-02-16T08:48:43.116Z,53.18
2019-02-16T08:51:26.067Z,52.46
2019-02-16T08:54:26.705Z,52.59
2019-02-16T09:00:22.522Z,51.67
2019-02-16T09:03:14.288Z,50.68
2019-02-16T09:06:00.534Z,50.68
2019-02-16T09:08:49.336Z,51.15
2019-02-16T09:11:29.047Z,50.89
2019-02-16T09:14:08.806Z,49.99
2019-02-16T09:16:50.877Z,49.99
2019-02-16T09:19:38.190Z,50.20
2019-02-16T09:22:17.820Z,48.42
2019-02-16T09:24:59.676Z,48.42
2019-02-16T09:27:47.497Z,49.50
2019-02-16T09:30:36.409Z,48.21
2019-02-16T09:33:28.873Z,48.21
2019-02-16T09:36:06.675Z,48.12
2019-02-16T09:39:02.226Z,46.88
2019-02-16T09:41:46.699Z,46.89
2019-02-16T09:44:35.863Z,46.25
2019-02-16T09:47:23.323Z,46.52
2019-02-16T09:50:31.216Z,46.16
2019-02-16T09:53:25.305Z,47.03
2019-02-16T09:56:12.530Z,47.03
2019-02-16T09:59:01.753Z,46.71
2019-02-16T10:01:42.735Z,46.21
2019-02-16T10:04:44.572Z,45.19
2019-02-16T10:07:30.613Z,44.79
2019-02-16T10:10:14.780Z,45.26
2019-02-16T10:13:02.097Z,44.48
2019-02-16T10:15:49.252Z,44.48
2019-02-16T10:18:37.918Z,44.26
2019-02-16T10:21:21.071Z,44.87
2019-02-16T10:24:07.786Z,44.54
2019-02-16T10:27:03.828Z,44.54
2019-02-16T10:30:05.091Z,43.54
2019-02-16T10:32:51.916Z,43.54
2019-02-16T10:35:36.818Z,42.67
2019-02-16T10:38:16.961Z,42.67
2019-02-16T10:41:17.388Z,43.65
2019-02-16T10:43:58.155Z,43.41
2019-02-16T10:46:49.711Z,43.41
2019-02-16T10:49:33.506Z,43.82
2019-02-16T10:52:40.155Z,44.19
2019-02-16T10:55:34.331Z,44.19
2019-02-16T10:58:13.223Z,44.14
2019-02-16T11:01:02.594Z,44.90
2019-02-16T11:03:54.998Z,44.90
2019-02-16T11:06:33.733Z,45.02
2019-02-16T11:09:31.454Z,44.19
2019-02-16T11:12:20.914Z,43.41
2019-02-16T11:15:07.919Z,43.19
2019-02-16T11:18:06.260Z,43.19
2019-02-16T11:21:06.938Z,43.21
2019-02-16T11:23:54.671Z,41.90
2019-02-16T11:26:43.825Z,42.57
2019-02-16T11:29:24.154Z,41.90
2019-02-16T11:31:59.772Z,41.90
2019-02-16T11:35:00.422Z,42.46
2019-02-16T11:37:41.104Z,42.05
2019-02-16T11:40:26.294Z,42.05
2019-02-16T11:43:17.965Z,41.25
2019-02-16T11:46:07.193Z,41.01
2019-02-16T11:48:48.422Z,41.50
2019-02-16T11:51:37.452Z,41.59
2019-02-16T11:54:22.331Z,41.59
2019-02-16T11:57:17.129Z,41.35
2019-02-16T12:00:15.300Z,42.21
2019-02-16T12:02:59.939Z,40.70
2019-02-16T12:05:46.661Z,40.70
2019-02-16T12:08:33.708Z,41.25
2019-02-16T12:11:20.787Z,40.69
2019-02-16T12:14:09.258Z,41.02
2019-02-16T12:17:07.031Z,40.94
2019-02-16T12:20:02.957Z,40.86
2019-02-16T12:22:42.041Z,40.86
2019-02-16T12:25:40.134Z,41.24
2019-02-16T12:28:21.589Z,41.24
2019-02-16T12:31:13.325Z,41.09
2019-02-16T12:34:00.390Z,41.09
2019-02-16T12:36:47.165Z,41.10
2019-02-16T12:39:23.606Z,41.43
2019-02-16T12:42:00.745Z,41.89
2019-02-16T12:44:47.478Z,41.70
2019-02-16T12:47:45.493Z,41.69
2019-02-16T12:50:25.510Z,41.41
2019-02-16T12:53:08.319Z,41.40
2019-02-16T12:56:00.098Z,40.65
2019-02-16T12:58:55.933Z,41.60
2019-02-16T13:01:47.824Z,41.17
2019-02-16T13:04:41.489Z,41.17
2019-02-16T13:07:39.038Z,39.76
2019-02-16T13:10:30.818Z,39.29
2019-02-16T13:13:25.464Z,39.29
2019-02-16T13:16:22.719Z,39.08
2019-02-16T13:19:10.941Z,40.21
2019-02-16T13:21:48.565Z,39.68
2019-02-16T13:24:29.836Z,37.75
2019-02-16T13:27:12.075Z,38.40
2019-02-16T13:29:57.143Z,38.40
2019-02-16T13:32:40.315Z,37.55
2019-02-16T13:35:27.234Z,37.53
2019-02-16T13:38:23.390Z,36.63
2019-02-16T13:41:11.940Z,35.92
2019-02-16T13:43:55.648Z,33.89
2019-02-16T13:46:36.995Z,33.87
2019-02-16T13:51:56.494Z,33.83
2019-02-16T13:54:51.283Z,32.24
2019-02-16T13:57:49.493Z,32.24
2019-02-16T14:00:40.839Z,31.97
2019-02-16T14:03:33.093Z,31.12
2019-02-16T14:06:10.409Z,31.12
2019-02-16T14:08:54.910Z,32.29
2019-02-16T14:11:46.150Z,31.98
2019-02-16T14:14:53.161Z,31.98
2019-02-16T14:17:40.697Z,32.14
2019-02-16T14:20:10.468Z,33.36
2019-02-16T14:22:40.150Z,33.45
2019-02-16T14:25:14.171Z,33.45
2019-02-16T14:27:43.786Z,33.68
2019-02-16T14:30:13.624Z,33.68
2019-02-16T14:32:43.464Z,34.62
2019-02-16T14:35:15.030Z,34.37
2019-02-16T14:38:07.951Z,35.34
2019-02-16T14:40:38.454Z,34.97
2019-02-16T14:43:08.550Z,34.97
2019-02-16T14:45:40.167Z,35.45
2019-02-16T14:48:10.154Z,34.66
2019-02-16T14:50:39.755Z,34.38
2019-02-16T14:53:11.114Z,35.34
2019-02-16T14:55:51.630Z,35.34
2019-02-16T14:58:14.679Z,34.99
2019-02-16T15:00:44.225Z,35.79
2019-02-16T15:03:13.781Z,35.79
2019-02-16T15:05:44.912Z,37.16
2019-02-16T15:08:14.417Z,36.68
2019-02-16T15:10:44.279Z,36.51
2019-02-16T15:13:14.068Z,35.57
2019-02-16T15:15:43.649Z,36.99
2019-02-16T15:18:13.215Z,36.48
2019-02-16T15:20:42.851Z,36.48
2019-02-16T15:23:12.497Z,36.50
2019-02-16T15:28:21.706Z,35.32
2019-02-16T15:30:53.499Z,35.32
2019-02-16T15:33:23.103Z,35.74
2019-02-16T15:35:53.790Z,35.74
2019-02-16T15:38:23.414Z,36.57
2019-02-16T15:40:53.432Z,36.86
2019-02-16T15:43:23.613Z,36.70
2019-02-16T15:45:55.212Z,37.17
2019-02-16T15:48:24.732Z,37.17
2019-02-16T15:50:54.839Z,37.77
2019-02-16T15:53:24.464Z,37.77
2019-02-16T15:55:55.583Z,37.95
2019-02-16T15:58:25.372Z,39.26
2019-02-16T16:00:57.632Z,39.38
2019-02-16T16:03:30.101Z,39.77
2019-02-16T16:06:00.032Z,39.77
2019-02-16T16:08:48.626Z,39.46
2019-02-16T16:11:38.126Z,40.11
2019-02-16T16:14:27.240Z,40.18
2019-02-16T16:17:25.239Z,40.54
2019-02-16T16:20:17.728Z,40.54
2019-02-16T16:23:04.137Z,40.97
2019-02-16T16:25:56.085Z,41.39
2019-02-16T16:29:00.870Z,42.02
2019-02-16T16:31:52.170Z,42.08
2019-02-16T16:34:40.752Z,42.08
2019-02-16T16:37:28.079Z,42.50
2019-02-16T16:40:23.703Z,43.95
2019-02-16T16:43:18.817Z,43.95
2019-02-16T16:46:20.034Z,44.34
2019-02-16T16:49:20.717Z,45.54
2019-02-16T16:52:16.158Z,46.48
2019-02-16T16:55:01.135Z,46.48
2019-02-16T16:57:36.703Z,46.35
2019-02-16T17:00:24.291Z,47.38
2019-02-16T17:03:08.000Z,48.51
2019-02-16T17:05:53.180Z,48.51
2019-02-16T17:08:47.812Z,47.75
2019-02-16T17:11:39.198Z,47.75
2019-02-16T17:14:28.591Z,49.64
2019-02-16T17:17:17.368Z,49.64
2019-02-16T17:20:12.665Z,47.76
2019-02-16T17:23:13.029Z,49.94
2019-02-16T17:26:16.658Z,49.94
2019-02-16T17:29:12.225Z,49.92
2019-02-16T17:31:56.517Z,51.21
2019-02-16T17:34:45.129Z,51.72
2019-02-16T17:37:30.756Z,51.29
2019-02-16T17:40:19.125Z,51.65
2019-02-16T17:43:11.142Z,52.26
2019-02-16T17:46:11.878Z,52.41
2019-02-16T17:49:00.361Z,52.62
2019-02-16T17:51:54.881Z,53.12
2019-02-16T17:54:43.804Z,53.09
2019-02-16T17:57:29.269Z,53.09
2019-02-16T18:00:14.270Z,53.17
2019-02-16T18:03:11.078Z,54.56
2019-02-16T18:05:58.271Z,53.90
2019-02-16T18:08:59.008Z,55.47
2019-02-16T18:11:57.003Z,54.27
2019-02-16T18:14:54.399Z,54.20
2019-02-16T18:17:40.549Z,54.86
2019-02-16T18:20:34.184Z,54.10
2019-02-16T18:23:12.862Z,54.23
2019-02-16T18:26:01.523Z,54.23
2019-02-16T18:28:57.436Z,54.60
2019-02-16T18:31:35.075Z,55.40
2019-02-16T18:34:24.143Z,55.07
2019-02-16T18:37:11.294Z,55.20
2019-02-16T18:39:58.386Z,55.20
2019-02-16T18:42:45.468Z,55.42
2019-02-16T18:45:49.315Z,55.86
2019-02-16T18:48:36.373Z,55.89
2019-02-16T18:51:28.093Z,55.89
2019-02-16T18:54:15.415Z,56.18
2019-02-16T18:57:14.792Z,55.76
2019-02-16T19:00:03.210Z,56.58
2019-02-16T19:02:52.188Z,56.58
2019-02-16T19:05:33.202Z,57.80
2019-02-16T19:08:21.834Z,57.43
2019-02-16T19:11:24.737Z,57.37
2019-02-16T19:14:12.485Z,58.25
2019-02-16T19:17:10.431Z,58.18
2019-02-16T19:19:58.075Z,57.92
2019-02-16T19:22:46.772Z,58.62
2019-02-16T19:25:32.294Z,58.62
2019-02-16T19:28:20.711Z,58.97
2019-02-16T19:30:58.360Z,58.68
2019-02-16T19:33:50.146Z,58.68
2019-02-16T19:36:38.789Z,58.80
2019-02-16T19:39:42.389Z,59.39
2019-02-16T19:42:20.416Z,58.65
2019-02-16T19:45:09.176Z,59.40
2019-02-16T19:47:57.994Z,59.40
2019-02-16T19:50:38.663Z,59.28
2019-02-16T19:53:26.092Z,59.46
2019-02-16T19:56:20.483Z,60.81
2019-02-16T19:59:16.205Z,60.58
2019-02-16T20:02:03.336Z,60.58
2019-02-16T20:04:54.324Z,60.30
2019-02-16T20:08:00.334Z,60.24
2019-02-16T20:10:40.350Z,60.24
2019-02-16T20:13:31.511Z,60.31
2019-02-16T20:16:12.528Z,61.85
2019-02-16T20:19:07.384Z,61.95
2019-02-16T20:21:49.166Z,61.95
2019-02-16T20:24:53.132Z,61.75
2019-02-16T20:27:50.170Z,61.75
2019-02-16T20:30:39.549Z,61.24
2019-02-16T20:33:34.408Z,61.14
2019-02-16T20:36:38.588Z,60.97
2019-02-16T20:39:25.649Z,60.97
2019-02-16T20:42:07.204Z,60.75
2019-02-16T20:45:02.337Z,60.78
2019-02-16T20:47:41.398Z,61.27
2019-02-16T20:50:42.138Z,61.27
2019-02-16T20:53:33.753Z,60.83
2019-02-16T20:56:16.167Z,60.83
2019-02-16T20:59:11.528Z,61.65
2019-02-16T21:02:09.954Z,61.14
2019-02-16T21:05:13.133Z,61.03
2019-02-16T21:07:51.697Z,60.24
2019-02-16T21:10:30.629Z,60.24
2019-02-16T21:13:09.943Z,60.50
2019-02-16T21:15:54.517Z,60.50
2019-02-16T21:18:33.351Z,60.68
2019-02-16T21:21:21.593Z,60.89
2019-02-16T21:24:21.346Z,60.89
2019-02-16T21:27:09.129Z,60.81
2019-02-16T21:29:46.156Z,60.81
2019-02-16T21:32:40.766Z,60.46
2019-02-16T21:35:17.681Z,60.46
2019-02-16T21:38:09.772Z,60.60
2019-02-16T21:40:58.263Z,60.87
2019-02-16T21:43:46.760Z,60.62
2019-02-16T21:46:41.134Z,60.62
2019-02-16T21:49:35.310Z,61.65
2019-02-16T21:52:21.021Z,60.89
2019-02-16T21:55:15.572Z,60.89
2019-02-16T21:58:14.198Z,61.23
2019-02-16T22:00:57.736Z,61.58
2019-02-16T22:03:47.538Z,61.58
2019-02-16T22:06:30.775Z,61.43
2019-02-16T22:09:18.581Z,62.10
2019-02-16T22:12:01.081Z,62.05
2019-02-16T22:14:31.030Z,61.68
2019-02-16T22:17:03.228Z,62.19
2019-02-16T22:19:32.883Z,62.17
2019-02-16T22:22:04.768Z,62.15
2019-02-16T22:24:37.521Z,62.80
2019-02-16T22:27:07.412Z,62.79
2019-02-16T22:29:37.660Z,62.79
2019-02-16T22:32:07.635Z,63.27
2019-02-16T22:34:38.835Z,63.00
2019-02-16T22:37:09.504Z,63.00
2019-02-16T22:39:39.487Z,64.39
2019-02-16T22:42:10.022Z,64.31
2019-02-16T22:44:40.506Z,64.47
2019-02-16T22:47:10.321Z,64.47
2019-02-16T22:49:41.268Z,64.81
2019-02-16T22:52:11.671Z,64.77
2019-02-16T22:54:41.318Z,64.69
2019-02-16T22:57:11.179Z,64.69
2019-02-16T22:59:41.065Z,64.23
2019-02-16T23:02:11.913Z,64.65
2019-02-16T23:04:41.662Z,64.68
2019-02-16T23:07:13.039Z,64.67
2019-02-16T23:09:42.734Z,64.67
2019-02-16T23:12:14.835Z,64.51
2019-02-16T23:14:44.792Z,64.59
2019-02-16T23:17:15.532Z,64.59
2019-02-16T23:19:45.297Z,64.57
2019-02-16T23:22:15.480Z,64.57
2019-02-16T23:24:47.935Z,64.50
2019-02-16T23:27:17.704Z,64.73
2019-02-16T23:29:48.631Z,64.92
2019-02-16T23:32:18.473Z,64.37
2019-02-16T23:34:48.100Z,64.37
2019-02-16T23:37:18.125Z,64.71
2019-02-16T23:39:47.701Z,64.84
2019-02-16T23:42:17.488Z,65.05
2019-02-16T23:44:47.475Z,64.37
2019-02-16T23:47:20.875Z,64.82
2019-02-16T23:49:51.194Z,64.82
2019-02-16T23:52:21.350Z,64.81
2019-02-16T23:54:51.183Z,64.98
2019-02-16T23:57:20.896Z,65.04
2019-02-16T23:59:50.757Z,65.04
